Route Details

Aircraft Information
Group: North America Fleet
Types: B738, B752, B762, B763
Route Data
Distance: 560nm
Duration: 2h 04m
Origin METAR: KATL 160008Z 21003KT 10SM TS FEW040CB BKN150 BKN250 28/23 A2988 RMK AO2 TSB08 OCNL LTGICCG VC SW-NW TS VC SW-NW MOV SE T02780228
Dest. METAR: KRFD 152354Z 00000KT 10SM OVC095 23/17 A3008 RMK AO2 SLP184 T02330167 10267 20233 50002 $
Freight Data
(for Aug 16, 2022)
Load Factor:
26%
Manifested Cargo: 20,430lbs
Financial History
Total Freight: 0lbs
Average Load: 0lbs/flt
Fuel Used: 0lbs
Avg. Fuel Used: 0lbs/flt
Fuel Expense: $0
Avg. Fuel Expense: $0
Avg. Fuel Cost: $0/lbs
Total Gross Income: $0
Pilot Pay: $0
Total Expenses: $0
Total Revenue: $0
Average Revenue: $0

Capitol Logistics 382




KATL
Hartsfield - Jackson Atlanta International Airport
Atlanta, Georgia
KRFD
Chicago/Rockford International Airport
Rockford, Illinois

Activity Log

Date Flight Route Aircraft Duration
No Flights Yet